CST,Max TemperatureF,Mean TemperatureF,Min TemperatureF,Max Dew PointF,MeanDew PointF,Min DewpointF,Max Humidity, Mean Humidity, Min Humidity, Max Sea Level PressureIn, Mean Sea Level PressureIn, Min Sea Level PressureIn, Max VisibilityMiles, Mean VisibilityMiles, Min VisibilityMiles, Max Wind SpeedMPH, Mean Wind SpeedMPH, Max Gust SpeedMPH,PrecipitationIn, CloudCover, Events, WindDirDegrees
2013-12-1,53,43,33,37,33,31,92,69,46,30.12,30.05,29.95,10,10,7,12,6,16,0.00,0,,286
2013-12-2,48,40,32,43,37,30,96,86,76,29.92,29.80,29.72,7,5,2,9,6,11,T,6,Rain,111
2013-12-3,53,47,41,49,46,40,100,92,83,29.75,29.72,29.68,8,4,0,14,9,19,0.00,5,Fog,164
2013-12-4,63,54,45,58,51,40,100,89,78,29.81,29.68,29.55,10,4,0,23,12,29,T,7,Fog-Rain,174
2013-12-5,45,34,22,38,24,16,89,79,68,30.27,30.10,29.81,10,8,2,22,15,28,0.01,7,Rain-Snow,311
2013-12-6,23,19,14,19,14,8,92,80,67,30.57,30.38,30.26,10,10,7,20,14,24,T,8,Snow,349
2013-12-7,24,17,9,10,7,5,84,65,46,30.70,30.62,30.52,10,10,10,16,10,21,0.00,0,,18
2013-12-8,27,23,19,27,21,10,100,84,67,30.48,30.17,30.00,10,5,0,16,10,20,0.03,8,Fog-Rain-Snow,125
2013-12-9,26,22,18,23,17,11,92,83,73,30.28,30.21,30.06,10,10,8,22,10,27,T,6,,287
2013-12-10,30,18,6,17,11,6,96,75,53,30.35,30.27,30.22,10,10,10,20,7,27,T,1,,238
2013-12-11,30,17,3,21,13,-2,92,80,67,30.65,30.45,30.31,10,9,2,24,10,28,T,3,Snow,302
2013-12-12,23,12,0,9,4,-2,95,72,49,30.64,30.49,30.30,10,10,10,20,9,26,0.00,0,,192
2013-12-13,32,25,18,32,24,10,100,81,62,30.27,30.13,30.01,10,7,1,16,11,23,0.07,5,Rain-Snow,166
2013-12-14,33,29,25,33,30,22,100,94,88,30.07,29.92,29.80,10,4,0,24,13,30,0.15,8,Fog-Snow,25
2013-12-15,25,21,17,23,18,13,92,83,74,30.18,30.11,30.05,9,7,2,23,9,26,T,8,Snow,284
2013-12-16,28,24,20,28,23,20,100,96,92,30.11,30.06,30.01,5,2,0,21,7,24,T,8,Fog,19
2013-12-17,31,25,19,27,22,12,100,84,68,30.24,30.14,30.08,10,4,0,21,10,24,T,6,Fog-Snow,268
2013-12-18,39,27,15,27,18,10,74,63,52,30.27,30.13,29.96,10,10,10,22,12,31,0.00,0,,196
2013-12-19,49,43,36,45,38,28,93,79,64,29.97,29.92,29.83,10,10,9,17,11,24,0.00,3,,181
2013-12-20,61,49,36,60,51,37,100,92,84,29.85,29.78,29.70,10,9,3,18,11,24,0.10,8,Rain,218
2013-12-21,37,35,32,36,34,32,100,100,100,29.83,29.72,29.46,10,5,2,23,12,27,1.23,8,Rain,5
2013-12-22,36,31,26,35,31,22,100,91,82,30.20,29.84,29.56,10,7,2,21,12,25,T,8,,268
2013-12-23,27,19,10,22,15,1,91,79,66,30.55,30.43,30.22,10,10,9,22,14,26,T,6,Snow,293
2013-12-24,20,12,4,11,4,-3,83,70,56,30.64,30.54,30.41,10,10,10,18,9,22,0.00,1,,240
2013-12-25,32,26,20,28,20,12,85,74,62,30.40,30.29,30.21,10,10,8,18,11,25,0.00,8,,211
2013-12-26,39,31,23,27,24,21,92,73,54,30.40,30.31,30.22,10,10,8,16,9,21,0.00,2,,225
2013-12-27,47,38,29,32,29,25,78,66,53,30.38,30.31,30.22,10,10,10,14,10,20,0.00,0,,202
2013-12-28,50,42,34,34,31,29,89,71,53,30.23,30.11,29.92,10,10,10,15,10,20,0.00,0,,188
2013-12-29,39,28,17,31,25,12,92,78,64,30.23,30.00,29.84,10,7,2,25,16,30,T,6,Snow,286
2013-12-30,22,15,8,10,6,0,80,68,56,30.37,30.28,30.23,10,10,7,21,7,24,T,6,Snow,294
2013-12-31,34,25,16,22,16,11,77,64,51,30.42,30.28,30.20,10,10,10,17,9,23,0.00,3,,245